Time;durP1;ratioP1;P1;durP2;ratioP2;P2;SDS_P1;SDS_P2;PMS_P1;PMS_P2;Temp;Humidity;BMP_temperature;BMP_pressure;BME280_temperature;BME280_humidity;BME280_pressure;Samples;Min_cycle;Max_cycle;Signal;HPM_P1;HPM_P2
2022/05/27 00:00:44;;;;;;;17.95;6.63;;;14.30;1.00;;;;;;4995875;28;20035;-86
2022/05/27 00:03:11;;;;;;;15.32;5.85;;;14.40;1.00;;;;;;5008292;28;20172;-85
2022/05/27 00:05:37;;;;;;;17.48;6.75;;;14.30;1.00;;;;;;4981980;28;20050;-85
2022/05/27 00:08:04;;;;;;;19.83;5.97;;;14.40;1.00;;;;;;5000944;28;20034;-85
2022/05/27 00:10:29;;;;;;;15.45;6.60;;;14.30;1.00;;;;;;4982009;28;20037;-85
2022/05/27 00:12:55;;;;;;;14.30;6.10;;;14.30;1.00;;;;;;5000160;28;20093;-85
2022/05/27 00:15:23;;;;;;;14.73;5.70;;;14.30;99.90;;;;;;5009473;28;20129;-85
2022/05/27 00:17:49;;;;;;;15.70;5.57;;;14.30;1.00;;;;;;5009298;28;20451;-85
2022/05/27 00:20:15;;;;;;;17.88;6.32;;;14.30;1.00;;;;;;4999591;28;20527;-85
2022/05/27 00:22:40;;;;;;;20.58;6.63;;;14.20;1.00;;;;;;4995240;28;20121;-85
2022/05/27 00:25:07;;;;;;;18.38;5.68;;;14.10;1.00;;;;;;4998393;28;20365;-85
2022/05/27 00:27:33;;;;;;;19.15;6.28;;;14.10;1.00;;;;;;4995797;28;20457;-85
2022/05/27 00:29:58;;;;;;;16.38;5.10;;;14.10;1.00;;;;;;4998705;28;20111;-85
2022/05/27 00:32:24;;;;;;;14.15;5.03;;;14.10;99.90;;;;;;4995794;28;20097;-85
2022/05/27 00:34:50;;;;;;;14.85;5.40;;;14.10;99.90;;;;;;4979726;28;20121;-85
2022/05/27 00:37:16;;;;;;;17.08;5.93;;;14.10;99.90;;;;;;4981049;28;20026;-85
2022/05/27 00:39:42;;;;;;;19.08;5.45;;;14.00;99.90;;;;;;5010627;28;20054;-85
2022/05/27 00:42:08;;;;;;;21.85;6.13;;;14.00;99.90;;;;;;4993567;28;20046;-85
2022/05/27 00:44:34;;;;;;;20.98;6.25;;;14.00;1.00;;;;;;5000450;28;20065;-85
2022/05/27 00:47:12;;;;;;;25.90;5.85;;;14.00;1.00;;;;;;4993208;28;20053;-85
2022/05/27 00:49:48;;;;;;;24.25;6.63;;;14.00;1.00;;;;;;5003352;28;20046;-85
2022/05/27 00:52:17;;;;;;;22.88;6.88;;;14.00;1.00;;;;;;5009284;28;20042;-84
2022/05/27 00:54:44;;;;;;;17.25;5.25;;;13.90;1.00;;;;;;4984258;28;20042;-85
2022/05/27 00:57:15;;;;;;;19.20;5.30;;;13.90;1.00;;;;;;5008057;28;20382;-85
2022/05/27 01:00:02;;;;;;;23.10;5.60;;;13.80;1.00;;;;;;4979981;28;20038;-85
2022/05/27 01:02:28;;;;;;;17.30;5.47;;;13.70;1.00;;;;;;4983587;28;20049;-85
2022/05/27 01:04:54;;;;;;;27.95;6.43;;;13.70;1.00;;;;;;4979029;28;20045;-85
2022/05/27 01:07:20;;;;;;;16.95;5.43;;;13.70;99.90;;;;;;4994369;28;20394;-84
2022/05/27 01:09:48;;;;;;;20.67;5.63;;;13.60;1.00;;;;;;5000562;28;20076;-85
2022/05/27 01:12:32;;;;;;;15.68;5.45;;;13.50;99.90;;;;;;4985233;28;20054;-85
2022/05/27 01:15:00;;;;;;;22.80;5.13;;;13.60;1.00;;;;;;5006159;28;20487;-84
2022/05/27 01:17:46;;;;;;;21.42;6.13;;;13.50;99.90;;;;;;4984724;28;20498;-84
2022/05/27 01:20:19;;;;;;;;;;;13.50;99.90;;;;;;4993347;28;20285;-84
2022/05/27 01:23:24;;;;;;;17.27;4.88;;;13.50;99.90;;;;;;5013867;28;19953;-85
2022/05/27 01:26:03;;;;;;;11.55;4.15;;;13.40;99.90;;;;;;4968507;28;20050;-84
2022/05/27 01:28:43;;;;;;;22.02;4.88;;;13.40;99.90;;;;;;5002347;28;20047;-84
2022/05/27 01:31:28;;;;;;;17.45;4.05;;;13.30;99.90;;;;;;4987229;28;20114;-84
2022/05/27 01:34:46;;;;;;;19.00;4.07;;;13.30;99.90;;;;;;5014151;28;20034;-84
2022/05/27 01:37:24;;;;;;;19.30;4.43;;;13.30;99.90;;;;;;4911796;28;20070;-85
2022/05/27 01:40:12;;;;;;;15.68;4.03;;;13.30;54.50;;;;;;5016424;28;20118;-84
2022/05/27 01:42:52;;;;;;;16.27;4.18;;;13.30;1.00;;;;;;4996380;28;20284;-85
2022/05/27 01:45:40;;;;;;;14.60;3.50;;;13.20;1.00;;;;;;4993634;28;20718;-85
2022/05/27 01:48:13;;;;;;;13.70;3.55;;;13.20;25.60;;;;;;5013868;28;20355;-84
2022/05/27 01:51:12;;;;;;;17.45;4.22;;;13.10;10.50;;;;;;5000829;28;20152;-85
2022/05/27 01:54:07;;;;;;;13.82;3.70;;;13.00;11.10;;;;;;4985007;28;20077;-84
2022/05/27 01:57:00;;;;;;;19.70;4.70;;;12.90;5.70;;;;;;5009415;28;20226;-84
2022/05/27 01:59:31;;;;;;;15.00;4.38;;;12.90;2.00;;;;;;4994268;28;20375;-85
2022/05/27 02:02:06;;;;;;;15.65;3.78;;;12.90;1.00;;;;;;4997802;28;20042;-85
2022/05/27 02:04:38;;;;;;;13.60;3.72;;;12.80;1.00;;;;;;5006258;28;20457;-84
2022/05/27 02:07:11;;;;;;;15.00;3.45;;;12.70;1.00;;;;;;5008071;28;20030;-85
2022/05/27 02:09:55;;;;;;;17.58;3.97;;;12.70;1.00;;;;;;4984783;28;20500;-85
2022/05/27 02:12:36;;;;;;;14.60;3.80;;;12.60;1.00;;;;;;4987067;28;20174;-85
2022/05/27 02:15:28;;;;;;;13.75;4.50;;;12.60;1.00;;;;;;4985273;28;20049;-85
2022/05/27 02:18:04;;;;;;;14.50;4.15;;;12.50;1.00;;;;;;4965915;28;20054;-83
2022/05/27 02:20:36;;;;;;;18.58;3.80;;;12.40;1.00;;;;;;4995587;28;20109;-84
2022/05/27 02:23:22;;;;;;;16.75;4.10;;;12.40;1.00;;;;;;4994579;28;20126;-84
2022/05/27 02:25:51;;;;;;;15.23;3.78;;;12.30;1.00;;;;;;5013065;28;20046;-84
2022/05/27 02:28:22;;;;;;;16.10;3.70;;;12.30;1.00;;;;;;5008216;28;20464;-84
2022/05/27 02:30:54;;;;;;;13.68;3.83;;;12.30;1.00;;;;;;5012185;28;20038;-84
2022/05/27 02:36:16;;;;;;;15.82;3.65;;;12.10;1.90;;;;;;4997516;28;20362;-84
2022/05/27 02:38:42;;;;;;;16.25;3.90;;;12.00;1.00;;;;;;4989863;28;20439;-84
2022/05/27 02:41:18;;;;;;;17.13;3.92;;;12.00;1.00;;;;;;4979551;28;20058;-84
2022/05/27 02:43:49;;;;;;;11.70;4.03;;;12.00;1.00;;;;;;5010306;28;20113;-84
2022/05/27 02:46:29;;;;;;;11.20;3.55;;;12.00;1.00;;;;;;5010500;28;20041;-84
2022/05/27 02:49:11;;;;;;;17.40;3.85;;;11.90;1.00;;;;;;5006600;28;20026;-84
2022/05/27 02:52:04;;;;;;;12.98;3.95;;;11.90;2.90;;;;;;4997885;28;20051;-84
2022/05/27 02:55:04;;;;;;;17.00;3.70;;;11.90;1.00;;;;;;4996831;28;20046;-84
2022/05/27 02:57:41;;;;;;;10.27;3.47;;;11.80;1.00;;;;;;5010416;28;20030;-84
2022/05/27 03:00:10;;;;;;;14.20;5.18;;;11.70;1.00;;;;;;5010265;28;20034;-84
2022/05/27 03:02:36;;;;;;;17.92;3.80;;;11.70;1.00;;;;;;4985934;28;20053;-84
2022/05/27 03:05:03;;;;;;;17.88;3.47;;;11.60;1.00;;;;;;4995289;28;20043;-84
2022/05/27 03:07:39;;;;;;;13.02;3.28;;;11.60;1.00;;;;;;4985336;28;20038;-84
2022/05/27 03:10:08;;;;;;;12.82;3.30;;;11.60;1.00;;;;;;4980125;28;20056;-85
2022/05/27 03:12:49;;;;;;;16.02;3.53;;;11.60;1.00;;;;;;4981657;28;20035;-84
2022/05/27 03:15:28;;;;;;;15.75;3.47;;;11.50;1.00;;;;;;5001116;28;20046;-84
2022/05/27 03:18:22;;;;;;;14.55;3.63;;;11.50;1.00;;;;;;4983463;28;20114;-83
2022/05/27 03:21:09;;;;;;;15.88;4.25;;;11.50;1.00;;;;;;4992538;28;20486;-84
2022/05/27 03:23:40;;;;;;;21.02;4.38;;;11.50;1.00;;;;;;5004652;28;20041;-83
2022/05/27 03:26:19;;;;;;;13.02;3.75;;;11.50;16.90;;;;;;5000384;28;20108;-84
2022/05/27 03:29:16;;;;;;;15.90;4.30;;;11.40;23.60;;;;;;4993571;28;20042;-84
2022/05/27 03:31:54;;;;;;;12.93;3.90;;;11.40;89.30;;;;;;4997928;28;20129;-84
2022/05/27 03:34:48;;;;;;;15.63;4.40;;;11.40;48.70;;;;;;4996579;28;20642;-83
2022/05/27 03:37:25;;;;;;;16.58;4.07;;;11.40;58.30;;;;;;4985888;28;20476;-84
2022/05/27 03:40:11;;;;;;;15.10;4.28;;;11.40;71.30;;;;;;4978844;28;20057;-84
2022/05/27 03:42:39;;;;;;;15.13;4.03;;;11.30;99.90;;;;;;4993662;28;20041;-84
2022/05/27 03:45:18;;;;;;;15.18;4.38;;;11.30;77.10;;;;;;5008706;28;20060;-84
2022/05/27 03:47:45;;;;;;;14.43;4.03;;;11.30;99.90;;;;;;5011056;28;20080;-84
2022/05/27 03:50:15;;;;;;;14.70;4.55;;;11.40;99.90;;;;;;4989110;28;20038;-84
2022/05/27 03:52:45;;;;;;;14.70;4.30;;;11.40;99.90;;;;;;4984699;28;20125;-84
2022/05/27 03:55:15;;;;;;;13.40;3.88;;;11.40;97.70;;;;;;5006407;28;20111;-84
2022/05/27 03:57:41;;;;;;;11.05;3.55;;;11.50;12.80;;;;;;4997390;28;20038;-84
2022/05/27 04:00:08;;;;;;;17.10;4.18;;;11.50;1.00;;;;;;4996912;28;20456;-84
2022/05/27 04:02:34;;;;;;;16.67;3.85;;;11.60;99.90;;;;;;5010779;28;20034;-84
2022/05/27 04:05:00;;;;;;;17.00;3.67;;;11.70;99.90;;;;;;4991788;28;20662;-84
2022/05/27 04:07:25;;;;;;;15.48;3.30;;;11.70;99.90;;;;;;4978250;28;20209;-84
2022/05/27 04:09:51;;;;;;;16.23;4.10;;;11.80;99.90;;;;;;4973142;28;20541;-84
2022/05/27 04:12:19;;;;;;;11.80;3.88;;;11.90;99.90;;;;;;4986343;28;20054;-84
2022/05/27 04:14:49;;;;;;;14.13;3.80;;;11.90;99.90;;;;;;5003508;28;20078;-84
2022/05/27 04:17:33;;;;;;;12.60;4.05;;;12.00;99.90;;;;;;4973912;28;20054;-84
2022/05/27 04:20:10;;;;;;;15.63;3.72;;;12.10;99.90;;;;;;4989202;28;20497;-84
2022/05/27 04:22:37;;;;;;;16.65;4.07;;;12.10;99.90;;;;;;4991642;28;20045;-84
2022/05/27 04:25:04;;;;;;;14.77;3.47;;;12.10;99.90;;;;;;4998681;28;20042;-84
2022/05/27 04:27:30;;;;;;;11.15;3.30;;;12.10;99.90;;;;;;4999565;28;20046;-84
2022/05/27 04:29:56;;;;;;;11.95;3.72;;;12.10;99.90;;;;;;4968751;28;20046;-84
2022/05/27 04:32:22;;;;;;;14.05;3.97;;;12.20;99.90;;;;;;4975577;28;20053;-84
2022/05/27 04:34:49;;;;;;;14.93;4.05;;;12.30;99.90;;;;;;4973555;28;20117;-84
2022/05/27 04:37:15;;;;;;;16.88;3.70;;;12.30;99.90;;;;;;4989670;28;20117;-84
2022/05/27 04:39:41;;;;;;;15.02;3.78;;;12.30;99.90;;;;;;5004181;28;20489;-84
2022/05/27 04:42:08;;;;;;;14.88;3.95;;;12.40;99.90;;;;;;4992389;28;20096;-84
2022/05/27 04:44:34;;;;;;;14.65;3.67;;;12.40;99.90;;;;;;5003469;28;20045;-84
2022/05/27 04:47:00;;;;;;;15.05;3.67;;;12.50;99.90;;;;;;5005621;28;20039;-85
2022/05/27 04:52:13;;;;;;;16.50;4.05;;;12.40;99.90;;;;;;4979373;28;20250;-84
2022/05/27 04:54:39;;;;;;;11.77;2.83;;;12.40;99.90;;;;;;5005557;28;20093;-83
2022/05/27 04:57:06;;;;;;;14.80;3.05;;;12.50;99.90;;;;;;5008973;28;20053;-84
2022/05/27 04:59:36;;;;;;;13.63;3.47;;;12.50;99.90;;;;;;4994261;28;20098;-84
2022/05/27 05:02:03;;;;;;;14.70;3.58;;;12.50;99.90;;;;;;5008034;28;20092;-84
2022/05/27 05:04:29;;;;;;;11.60;3.20;;;12.40;99.90;;;;;;4978195;28;20070;-84
2022/05/27 05:06:58;;;;;;;11.52;3.30;;;12.40;99.90;;;;;;5006375;28;20168;-84
2022/05/27 05:09:23;;;;;;;13.82;3.40;;;12.40;99.90;;;;;;4994372;28;20042;-84
2022/05/27 05:11:49;;;;;;;16.40;3.22;;;12.30;99.90;;;;;;5007517;28;20034;-84
2022/05/27 05:14:15;;;;;;;14.32;3.75;;;12.30;99.90;;;;;;4977512;28;20042;-84
2022/05/27 05:16:41;;;;;;;14.07;3.60;;;12.20;99.90;;;;;;5005016;28;20033;-84
2022/05/27 05:19:09;;;;;;;12.27;3.35;;;12.30;99.90;;;;;;5005255;28;20148;-84
2022/05/27 05:21:36;;;;;;;17.25;3.25;;;12.30;99.90;;;;;;4973724;28;20130;-83
2022/05/27 05:24:03;;;;;;;13.25;3.33;;;12.40;99.90;;;;;;4977079;28;20165;-84
2022/05/27 05:26:29;;;;;;;11.63;3.53;;;12.50;99.90;;;;;;4981318;28;20204;-84
2022/05/27 05:28:54;;;;;;;11.90;3.22;;;12.50;99.90;;;;;;4993998;28;20072;-84
2022/05/27 05:31:20;;;;;;;14.80;3.42;;;12.50;97.70;;;;;;4994133;28;20053;-84
2022/05/27 05:33:46;;;;;;;14.90;3.65;;;12.50;79.50;;;;;;4977376;28;20034;-84
2022/05/27 05:36:12;;;;;;;10.98;3.17;;;12.50;96.70;;;;;;4988324;28;20037;-84
2022/05/27 05:38:38;;;;;;;10.60;2.95;;;12.50;26.40;;;;;;4993688;28;20081;-84
2022/05/27 05:41:05;;;;;;;11.07;3.35;;;12.50;93.60;;;;;;4991838;28;20061;-84
2022/05/27 05:43:31;;;;;;;11.50;3.30;;;12.40;20.60;;;;;;4993794;28;20485;-84
2022/05/27 05:45:56;;;;;;;10.93;3.20;;;12.50;1.00;;;;;;4997220;28;20164;-84
2022/05/27 05:48:22;;;;;;;11.60;3.08;;;12.50;1.00;;;;;;5013761;28;20477;-84
2022/05/27 05:50:48;;;;;;;12.45;2.97;;;12.70;1.00;;;;;;5001714;28;20630;-83
2022/05/27 05:53:19;;;;;;;9.18;3.10;;;12.80;30.00;;;;;;4984338;28;20476;-83
2022/05/27 05:55:44;;;;;;;14.02;3.33;;;12.90;1.00;;;;;;5008535;28;20516;-84
2022/05/27 05:58:10;;;;;;;12.85;3.45;;;13.00;1.00;;;;;;4976263;28;20038;-84
2022/05/27 06:00:36;;;;;;;12.00;2.95;;;13.10;1.00;;;;;;4992171;28;20042;-83
2022/05/27 06:03:02;;;;;;;14.65;3.13;;;13.20;1.00;;;;;;4980133;28;20050;-83
2022/05/27 06:05:27;;;;;;;14.25;3.17;;;13.30;1.00;;;;;;4980418;28;20045;-84
2022/05/27 06:07:56;;;;;;;10.60;3.03;;;13.20;1.00;;;;;;4978906;28;20046;-84
2022/05/27 06:10:22;;;;;;;11.35;2.83;;;13.30;99.90;;;;;;4997501;28;20313;-84
2022/05/27 06:12:48;;;;;;;10.07;3.22;;;13.30;99.90;;;;;;4995211;28;20046;-83
2022/05/27 06:15:14;;;;;;;12.10;3.15;;;13.30;1.00;;;;;;5001170;28;20034;-83
2022/05/27 06:17:40;;;;;;;9.55;3.33;;;13.20;1.00;;;;;;4980672;28;20189;-84
2022/05/27 06:20:07;;;;;;;15.63;3.38;;;13.40;99.90;;;;;;4980523;28;20593;-84
2022/05/27 06:22:33;;;;;;;14.85;3.38;;;13.40;99.90;;;;;;5012783;28;20070;-83
2022/05/27 06:25:02;;;;;;;9.40;3.13;;;13.40;99.90;;;;;;5010478;28;20034;-84
2022/05/27 06:27:28;;;;;;;13.95;3.30;;;13.50;99.90;;;;;;4996866;28;20173;-84
2022/05/27 06:35:26;;;;;;;11.70;3.13;;;13.50;99.90;;;;;;5006154;28;20508;-84
2022/05/27 06:37:52;;;;;;;21.25;3.53;;;13.50;99.90;;;;;;4993556;28;20054;-84
2022/05/27 06:40:18;;;;;;;14.15;3.47;;;13.40;99.90;;;;;;4976015;28;20066;-84
2022/05/27 06:42:44;;;;;;;10.95;3.03;;;13.30;99.90;;;;;;4990722;28;20433;-83
2022/05/27 06:45:13;;;;;;;11.70;3.15;;;13.30;99.90;;;;;;5005877;28;20034;-84
2022/05/27 06:47:39;;;;;;;13.52;3.08;;;13.40;99.90;;;;;;4995230;28;20127;-84
2022/05/27 06:50:09;;;;;;;9.60;2.67;;;13.60;99.90;;;;;;4992675;28;20033;-85
2022/05/27 06:52:36;;;;;;;12.23;2.67;;;13.70;99.90;;;;;;5012710;28;20065;-84
2022/05/27 06:55:02;;;;;;;13.63;2.88;;;13.70;99.90;;;;;;4995722;28;20037;-85
2022/05/27 06:57:28;;;;;;;7.72;2.60;;;13.70;99.90;;;;;;5001772;28;20030;-85
2022/05/27 06:59:54;;;;;;;9.10;2.60;;;13.70;99.90;;;;;;5009108;28;20328;-85
2022/05/27 07:02:22;;;;;;;12.57;2.80;;;13.80;99.90;;;;;;4980010;28;20049;-85
2022/05/27 07:04:48;;;;;;;10.52;3.28;;;13.80;99.90;;;;;;5001044;28;20047;-84
2022/05/27 07:07:15;;;;;;;10.05;2.47;;;13.90;99.90;;;;;;4981778;28;20348;-85
2022/05/27 07:09:40;;;;;;;11.10;3.00;;;14.00;99.90;;;;;;5008145;28;20442;-85
2022/05/27 07:12:09;;;;;;;10.50;3.08;;;13.90;99.90;;;;;;4993615;28;20056;-84
2022/05/27 07:14:39;;;;;;;9.30;3.17;;;14.00;99.90;;;;;;4984140;28;20465;-84
2022/05/27 07:17:06;;;;;;;10.40;2.63;;;13.80;99.90;;;;;;5009019;28;22327;-84
2022/05/27 07:19:32;;;;;;;12.63;2.80;;;13.80;99.90;;;;;;5011199;28;20529;-85
2022/05/27 07:21:58;;;;;;;16.98;3.38;;;13.80;99.90;;;;;;4978805;28;20126;-84
2022/05/27 07:24:25;;;;;;;11.07;2.90;;;13.70;99.90;;;;;;5001215;28;20052;-84
2022/05/27 07:26:51;;;;;;;10.63;2.60;;;13.60;99.90;;;;;;4979918;28;20461;-84
2022/05/27 07:29:17;;;;;;;11.18;2.50;;;13.80;99.90;;;;;;4994639;28;20073;-84
2022/05/27 07:31:44;;;;;;;13.68;2.83;;;14.20;99.90;;;;;;4998531;28;20085;-84
2022/05/27 07:34:10;;;;;;;12.80;2.97;;;14.00;99.90;;;;;;4995879;28;20367;-84
2022/05/27 07:36:36;;;;;;;11.52;2.72;;;13.80;99.90;;;;;;5008482;28;20046;-84
2022/05/27 07:39:03;;;;;;;11.50;3.13;;;14.00;99.90;;;;;;4991526;28;20066;-84
2022/05/27 07:41:30;;;;;;;9.68;2.60;;;14.10;99.90;;;;;;4996424;28;20041;-84
2022/05/27 07:43:59;;;;;;;13.27;2.83;;;13.90;99.90;;;;;;4979354;28;20038;-84
2022/05/27 07:46:27;;;;;;;11.80;3.10;;;14.00;99.90;;;;;;4985092;28;20134;-84
2022/05/27 07:48:53;;;;;;;8.48;2.70;;;14.10;99.90;;;;;;5006881;28;20041;-85
2022/05/27 07:51:19;;;;;;;10.07;2.60;;;14.30;99.90;;;;;;4979358;28;20580;-84
2022/05/27 07:53:45;;;;;;;9.75;2.70;;;14.20;99.90;;;;;;5005862;28;20275;-84
2022/05/27 07:56:11;;;;;;;11.15;2.80;;;14.10;99.90;;;;;;4982008;28;20033;-85
2022/05/27 07:58:37;;;;;;;9.77;2.42;;;14.40;99.90;;;;;;5002411;28;20038;-84
2022/05/27 08:01:05;;;;;;;10.60;3.13;;;14.40;99.90;;;;;;4998389;28;20038;-83
2022/05/27 08:03:31;;;;;;;12.63;2.90;;;15.00;99.90;;;;;;4993702;28;20493;-84
2022/05/27 08:05:58;;;;;;;10.13;2.83;;;14.80;99.90;;;;;;5005047;28;20042;-84
2022/05/27 08:08:24;;;;;;;12.02;3.22;;;14.40;99.90;;;;;;4976977;28;20134;-84
2022/05/27 08:10:50;;;;;;;13.93;3.45;;;14.60;99.90;;;;;;5009486;28;20072;-84
2022/05/27 08:13:16;;;;;;;12.27;3.20;;;14.80;99.90;;;;;;5014913;28;20114;-84
2022/05/27 08:15:42;;;;;;;13.32;3.20;;;14.70;99.90;;;;;;4984056;28;20073;-84
2022/05/27 08:18:09;;;;;;;13.57;3.30;;;14.50;99.90;;;;;;4983745;28;20417;-84
2022/05/27 08:20:36;;;;;;;20.25;3.60;;;14.80;99.90;;;;;;4983673;28;20041;-83
2022/05/27 08:23:03;;;;;;;13.85;2.90;;;14.40;99.90;;;;;;4983696;28;20109;-84
2022/05/27 08:25:33;;;;;;;13.43;3.35;;;14.60;99.90;;;;;;5000407;28;20489;-84
2022/05/27 08:27:58;;;;;;;13.65;2.60;;;14.60;99.90;;;;;;4992637;28;20046;-84
2022/05/27 08:30:28;;;;;;;10.65;2.95;;;14.30;99.90;;;;;;5000493;28;20092;-84
2022/05/27 08:33:01;;;;;;;11.57;2.53;;;14.30;99.90;;;;;;4985664;28;20034;-84
2022/05/27 08:38:21;;;;;;;10.32;2.95;;;14.30;99.90;;;;;;5013589;28;20038;-83
2022/05/27 08:40:47;;;;;;;;;;;14.70;99.90;;;;;;4986953;28;20528;-84
2022/05/27 08:43:29;;;;;;;13.27;2.75;;;14.50;99.90;;;;;;4998838;28;19917;-83
2022/05/27 08:46:22;;;;;;;12.85;3.00;;;14.70;99.90;;;;;;5014321;28;20408;-83
2022/05/27 08:48:54;;;;;;;8.13;2.50;;;14.50;99.90;;;;;;4995079;28;20050;-84
2022/05/27 08:51:26;;;;;;;10.05;2.40;;;14.60;99.90;;;;;;4996388;28;20058;-84
2022/05/27 08:54:12;;;;;;;10.50;2.85;;;14.80;99.90;;;;;;4986039;28;20065;-83
2022/05/27 08:59:56;;;;;;;12.90;2.35;;;14.90;98.90;;;;;;5008444;28;20045;-84
2022/05/27 09:02:34;;;;;;;9.75;2.70;;;14.80;99.00;;;;;;5010388;28;20545;-84
2022/05/27 09:05:22;;;;;;;14.13;3.38;;;15.30;99.90;;;;;;4974662;28;20070;-83
2022/05/27 09:07:57;;;;;;;12.75;2.53;;;14.80;99.90;;;;;;4978322;28;20167;-84
2022/05/27 09:10:31;;;;;;;11.40;2.92;;;14.20;99.90;;;;;;4985885;28;20038;-84
2022/05/27 09:13:29;;;;;;;11.90;2.70;;;14.80;99.90;;;;;;5009644;28;20046;-83
2022/05/27 09:16:12;;;;;;;12.60;3.47;;;14.50;99.90;;;;;;5011328;28;20102;-84
2022/05/27 09:18:58;;;;;;;6.85;1.85;;;14.40;99.70;;;;;;4980975;28;20568;-83
2022/05/27 09:21:30;;;;;;;12.40;3.00;;;14.30;94.20;;;;;;4980662;28;20247;-83
2022/05/27 09:24:34;;;;;;;12.07;2.78;;;14.40;99.90;;;;;;5005339;28;20041;-84
2022/05/27 09:27:10;;;;;;;10.13;2.50;;;15.10;99.90;;;;;;4975270;28;20593;-83
2022/05/27 09:29:58;;;;;;;11.05;2.95;;;14.90;99.90;;;;;;5012760;28;20077;-83
2022/05/27 09:32:33;;;;;;;12.85;2.75;;;15.00;99.90;;;;;;4995977;28;20073;-84
2022/05/27 09:35:06;;;;;;;9.57;2.78;;;15.00;99.90;;;;;;4993949;28;20038;-84
2022/05/27 09:37:37;;;;;;;9.57;2.03;;;14.90;99.90;;;;;;4989500;28;20188;-84
2022/05/27 09:40:14;;;;;;;10.77;2.50;;;14.80;99.90;;;;;;5000974;28;20050;-84
2022/05/27 09:43:01;;;;;;;9.00;2.10;;;14.50;99.10;;;;;;5010018;28;20054;-83
2022/05/27 09:45:29;;;;;;;12.65;2.72;;;15.20;99.80;;;;;;5009833;28;20561;-84
2022/05/27 09:48:00;;;;;;;7.10;2.15;;;15.30;97.20;;;;;;5010127;28;20089;-84
2022/05/27 09:50:37;;;;;;;11.63;2.22;;;15.10;97.70;;;;;;5005541;28;20180;-83
2022/05/27 09:53:04;;;;;;;11.65;2.85;;;14.90;99.90;;;;;;4975930;28;20269;-84
2022/05/27 09:55:52;;;;;;;13.45;2.85;;;14.60;97.00;;;;;;4990100;28;20110;-83
2022/05/27 09:58:30;;;;;;;11.85;2.45;;;15.20;99.90;;;;;;5004544;28;20061;-83
2022/05/27 10:00:56;;;;;;;13.75;2.63;;;14.70;99.70;;;;;;4988691;28;20037;-84
2022/05/27 10:03:39;;;;;;;9.57;2.22;;;15.40;99.10;;;;;;4996239;28;20184;-84
2022/05/27 10:06:15;;;;;;;13.00;2.67;;;15.20;94.20;;;;;;5003248;28;20073;-84
2022/05/27 10:08:51;;;;;;;10.02;3.15;;;15.20;93.40;;;;;;4977499;28;20093;-84
2022/05/27 10:11:22;;;;;;;13.85;2.92;;;15.20;93.30;;;;;;4976582;28;21323;-84
2022/05/27 10:14:10;;;;;;;9.45;2.35;;;15.00;98.00;;;;;;5004784;28;20040;-84
2022/05/27 10:16:38;;;;;;;7.53;2.03;;;14.90;92.30;;;;;;5006848;28;20237;-85
2022/05/27 10:19:08;;;;;;;10.00;2.17;;;15.30;90.80;;;;;;5006806;28;20041;-84
2022/05/27 10:21:52;;;;;;;12.90;2.63;;;15.10;85.10;;;;;;5004715;28;20041;-83
2022/05/27 10:24:30;;;;;;;7.72;2.40;;;15.10;97.00;;;;;;4999102;28;20078;-83
2022/05/27 10:27:17;;;;;;;12.50;2.67;;;15.50;92.70;;;;;;5006974;28;20497;-84
2022/05/27 10:29:51;;;;;;;11.40;2.35;;;15.70;99.40;;;;;;4994924;28;20505;-84
2022/05/27 10:32:31;;;;;;;11.68;2.75;;;15.90;97.30;;;;;;4983091;28;20043;-83
2022/05/27 10:35:18;;;;;;;10.82;2.40;;;15.60;95.30;;;;;;5008680;28;21828;-84
2022/05/27 10:38:12;;;;;;;6.00;2.40;;;15.40;89.80;;;;;;4981499;28;20152;-84
2022/05/27 10:40:45;;;;;;;9.30;2.25;;;15.00;90.00;;;;;;5005168;28;20066;-82
2022/05/27 10:43:38;;;;;;;11.25;2.78;;;15.50;91.00;;;;;;4969698;28;20125;-83
2022/05/27 10:46:07;;;;;;;9.95;2.38;;;15.80;91.80;;;;;;5007780;28;20049;-83
2022/05/27 10:48:39;;;;;;;13.75;2.38;;;15.80;94.30;;;;;;5005918;28;20076;-83
2022/05/27 10:51:42;;;;;;;8.27;2.40;;;15.80;94.10;;;;;;4989301;28;20418;-84
2022/05/27 10:54:08;;;;;;;12.93;2.80;;;15.50;87.00;;;;;;4993479;28;20050;-83
2022/05/27 11:02:04;;;;;;;13.00;3.03;;;16.00;91.80;;;;;;4993540;28;20066;-83
2022/05/27 11:03:02;;;;;;;10.10;2.50;;;15.70;93.60;;;;;;4984434;28;20544;-83
2022/05/27 11:05:49;;;;;;;13.90;2.50;;;15.70;89.10;;;;;;4977011;28;20038;-84
2022/05/27 11:08:33;;;;;;;10.32;2.55;;;15.80;94.10;;;;;;4975023;28;20038;-84
2022/05/27 11:11:20;;;;;;;10.88;2.70;;;15.80;88.50;;;;;;5012424;28;20130;-83
2022/05/27 11:17:28;;;;;;;14.93;2.92;;;15.40;91.40;;;;;;4981404;28;20042;-83
2022/05/27 11:20:16;;;;;;;11.63;2.77;;;15.40;85.20;;;;;;4961883;28;20057;-84
2022/05/27 11:23:21;;;;;;;11.43;2.63;;;14.50;87.20;;;;;;5011072;28;20300;-83
2022/05/27 11:25:58;;;;;;;11.18;2.80;;;14.30;92.70;;;;;;4964885;28;20058;-84
2022/05/27 11:28:46;;;;;;;8.90;2.47;;;14.80;96.60;;;;;;4981557;28;20050;-83
2022/05/27 11:31:55;;;;;;;14.15;3.05;;;14.60;95.90;;;;;;5005168;28;20038;-84
2022/05/27 11:34:28;;;;;;;12.27;2.67;;;14.80;99.90;;;;;;4962464;28;20299;-83
2022/05/27 11:37:33;;;;;;;13.25;3.17;;;15.30;90.70;;;;;;4959691;28;20168;-83
2022/05/27 11:40:43;;;;;;;12.40;2.67;;;15.50;90.40;;;;;;4959736;28;20457;-84
2022/05/27 11:43:28;;;;;;;9.05;1.92;;;15.70;73.70;;;;;;4968867;28;20510;-84
2022/05/27 11:45:54;;;;;;;9.35;2.00;;;15.20;73.70;;;;;;4974151;28;20634;-84
2022/05/27 11:48:59;;;;;;;16.83;3.20;;;15.00;78.50;;;;;;4980609;28;20095;-83
2022/05/27 11:51:48;;;;;;;15.07;3.15;;;15.40;84.60;;;;;;4997718;28;20048;-83
2022/05/27 11:54:23;;;;;;;12.55;3.08;;;15.50;88.00;;;;;;4980264;28;20047;-83
2022/05/27 11:57:02;;;;;;;;;;;15.40;94.00;;;;;;5016176;28;20037;-83
2022/05/27 11:59:36;;;;;;;8.30;2.65;;;15.30;99.90;;;;;;4994504;28;19918;-84
2022/05/27 12:02:13;;;;;;;9.93;2.67;;;15.10;85.30;;;;;;4995217;28;20042;-84
2022/05/27 12:04:55;;;;;;;14.25;3.40;;;15.00;91.20;;;;;;4997577;28;20440;-83
2022/05/27 12:07:32;;;;;;;12.23;3.10;;;14.80;91.60;;;;;;4997703;28;20108;-84
2022/05/27 12:10:14;;;;;;;12.60;2.08;;;14.70;97.70;;;;;;5008728;28;20044;-83
2022/05/27 12:13:07;;;;;;;10.45;2.63;;;14.80;94.40;;;;;;5000749;28;20405;-83
2022/05/27 12:15:59;;;;;;;13.43;3.22;;;14.90;99.90;;;;;;4994410;28;20079;-83
2022/05/27 12:18:43;;;;;;;13.05;2.90;;;14.60;99.90;;;;;;4980690;28;20050;-84
2022/05/27 12:21:22;;;;;;;12.23;2.55;;;14.70;95.80;;;;;;5011195;28;20039;-83
2022/05/27 12:24:22;;;;;;;9.57;2.63;;;15.40;99.00;;;;;;5010459;28;20046;-83
2022/05/27 12:26:53;;;;;;;9.68;2.63;;;15.30;99.90;;;;;;4976506;28;20473;-83
2022/05/27 12:29:22;;;;;;;11.93;2.55;;;15.40;99.90;;;;;;5005991;28;20498;-83
2022/05/27 12:31:50;;;;;;;13.90;3.10;;;15.10;91.20;;;;;;4976043;28;20065;-84
2022/05/27 12:34:28;;;;;;;7.38;2.35;;;15.00;92.90;;;;;;5001037;28;20313;-84
2022/05/27 12:37:16;;;;;;;11.43;2.63;;;14.50;99.90;;;;;;4999063;28;20434;-84
2022/05/27 12:39:44;;;;;;;16.00;2.78;;;14.60;99.90;;;;;;5010855;28;20432;-84
2022/05/27 12:42:21;;;;;;;11.35;3.15;;;14.70;99.90;;;;;;4981483;28;20065;-84
2022/05/27 12:44:48;;;;;;;10.77;2.25;;;15.20;99.90;;;;;;5009319;28;20075;-84
2022/05/27 12:47:33;;;;;;;10.80;2.72;;;15.50;92.40;;;;;;5011913;28;20058;-83
2022/05/27 12:50:12;;;;;;;10.15;2.40;;;15.30;99.90;;;;;;4995964;28;20077;-84
2022/05/27 12:52:54;;;;;;;12.35;2.70;;;14.80;92.90;;;;;;5011141;28;20089;-84
2022/05/27 13:01:23;;;;;;;10.75;2.40;;;15.90;97.70;;;;;;4996838;28;20049;-84
2022/05/27 13:03:51;;;;;;;18.38;3.08;;;15.90;96.10;;;;;;4967666;28;20657;-84
2022/05/27 13:06:26;;;;;;;12.18;2.40;;;15.00;96.50;;;;;;5007868;28;20117;-84
2022/05/27 13:08:52;;;;;;;;;;;15.50;92.60;;;;;;4981190;28;20343;-84
2022/05/27 13:11:25;;;;;;;12.05;2.70;;;15.60;99.90;;;;;;4994150;28;19917;-83
2022/05/27 13:13:59;;;;;;;12.50;2.40;;;15.10;95.10;;;;;;5006936;28;20094;-85
2022/05/27 13:16:30;;;;;;;12.48;2.60;;;15.20;93.80;;;;;;5008708;28;20409;-84
2022/05/27 13:19:06;;;;;;;13.20;3.25;;;14.60;94.70;;;;;;5011318;28;20051;-84
2022/05/27 13:21:58;;;;;;;12.70;2.95;;;15.30;92.70;;;;;;4984478;28;20061;-83
2022/05/27 13:24:39;;;;;;;12.50;3.20;;;15.40;95.90;;;;;;5002578;28;20054;-84
2022/05/27 13:27:26;;;;;;;15.73;3.10;;;14.50;98.90;;;;;;4997631;28;20527;-83
2022/05/27 13:30:13;;;;;;;10.77;3.10;;;15.30;99.90;;;;;;4983696;28;20049;-84
2022/05/27 13:33:04;;;;;;;12.70;2.85;;;15.00;99.90;;;;;;5010972;28;20096;-84
2022/05/27 13:35:42;;;;;;;13.13;2.55;;;14.60;96.00;;;;;;5012886;28;20038;-84
2022/05/27 13:38:15;;;;;;;9.48;2.63;;;14.60;99.90;;;;;;5011836;28;20037;-83
2022/05/27 13:40:41;;;;;;;11.07;3.08;;;14.50;99.90;;;;;;4981818;28;20050;-84
2022/05/27 13:43:20;;;;;;;8.45;2.60;;;14.50;94.30;;;;;;5003215;28;20284;-83
2022/05/27 13:46:01;;;;;;;13.00;2.40;;;14.60;94.20;;;;;;4982162;28;20130;-84